DLH7MN LIPZ-EDDF
Flight info
| Callsign | DLH7MN |
|---|---|
| Flight time | N/A |
| Altitude | 30000 |
| Route | ROKIB DCT NAXAV DCT UNIMI L12 MOGTI Q163 HAFUN/N0422F240 Q163 ETASA T163 SPESA SPESA5C |
| Aircraft | A320/M-SDE3FGHIRWY/LB1 |
Departure
| Time | 2026-04-30 14:32 |
|---|---|
| Airport | Venice Marco Polo Airport (LIPZ) |
Arrival
| Time | N/A |
|---|---|
| Airport | Frankfurt Main Airport (EDDF) |
| Time | Latitude | Longitude | Altitude | Speed | Heading |
|---|---|---|---|---|---|
| 2026-04-30 14:11 | 45.50428 | 12.34224 | 16 ft | 0 kts | 268° |
| 2026-04-30 14:24 | 45.50428 | 12.34240 | 16 ft | 4 kts | 268° |
| 2026-04-30 14:24 | 45.50429 | 12.34278 | 16 ft | 4 kts | 267° |
| 2026-04-30 14:25 | 45.50445 | 12.34337 | 16 ft | 4 kts | 205° |
| 2026-04-30 14:25 | 45.50465 | 12.34344 | 16 ft | 0 kts | 177° |
| 2026-04-30 14:28 | 45.50457 | 12.34344 | 18 ft | 4 kts | 177° |
| 2026-04-30 14:28 | 45.50406 | 12.34348 | 16 ft | 11 kts | 177° |
| 2026-04-30 14:28 | 45.50310 | 12.34348 | 16 ft | 17 kts | 193° |
| 2026-04-30 14:29 | 45.50117 | 12.34124 | 17 ft | 19 kts | 222° |
| 2026-04-30 14:29 | 45.49938 | 12.33894 | 15 ft | 22 kts | 222° |
| 2026-04-30 14:30 | 45.49566 | 12.33523 | 16 ft | 12 kts | 160° |
| 2026-04-30 14:31 | 45.49452 | 12.33690 | 16 ft | 12 kts | 133° |
| 2026-04-30 14:31 | 45.49507 | 12.33890 | 14 ft | 24 kts | 42° |
| 2026-04-30 14:31 | 45.49810 | 12.34284 | 14 ft | 94 kts | 42° |
| 2026-04-30 14:32 | 45.51304 | 12.36208 | 163 ft | 178 kts | 43° |
| 2026-04-30 14:32 | 45.52223 | 12.37366 | 855 ft | 178 kts | 43° |
| 2026-04-30 14:32 | 45.53157 | 12.38518 | 1504 ft | 185 kts | 45° |
| 2026-04-30 14:33 | 45.53791 | 12.40195 | 1859 ft | 202 kts | 85° |
| 2026-04-30 14:33 | 45.53324 | 12.44123 | 3141 ft | 205 kts | 99° |
| 2026-04-30 14:33 | 45.53094 | 12.46149 | 3796 ft | 207 kts | 98° |
| 2026-04-30 14:34 | 45.52887 | 12.48225 | 4429 ft | 212 kts | 97° |
| 2026-04-30 14:34 | 45.52642 | 12.50303 | 5228 ft | 213 kts | 107° |
| 2026-04-30 14:34 | 45.51852 | 12.52088 | 5911 ft | 220 kts | 138° |
| 2026-04-30 14:34 | 45.50435 | 12.53034 | 6400 ft | 235 kts | 173° |
| 2026-04-30 14:35 | 45.47786 | 12.52028 | 7524 ft | 246 kts | 214° |
| 2026-04-30 14:35 | 45.46446 | 12.49457 | 8472 ft | 249 kts | 258° |
| 2026-04-30 14:35 | 45.46492 | 12.47016 | 9187 ft | 250 kts | 288° |
| 2026-04-30 14:36 | 45.47006 | 12.44640 | 9924 ft | 252 kts | 289° |
| 2026-04-30 14:36 | 45.47536 | 12.42268 | 10598 ft | 260 kts | 289° |
| 2026-04-30 14:36 | 45.48113 | 12.39703 | 10871 ft | 284 kts | 289° |
| 2026-04-30 14:36 | 45.48738 | 12.36905 | 11119 ft | 308 kts | 289° |
| 2026-04-30 14:37 | 45.49403 | 12.33886 | 11326 ft | 331 kts | 289° |
| 2026-04-30 14:37 | 45.50110 | 12.30644 | 11538 ft | 352 kts | 288° |
| 2026-04-30 14:37 | 45.50840 | 12.27264 | 12094 ft | 360 kts | 288° |
| 2026-04-30 14:37 | 45.51578 | 12.23832 | 12788 ft | 363 kts | 288° |
| 2026-04-30 14:38 | 45.52321 | 12.20374 | 13472 ft | 366 kts | 288° |
| 2026-04-30 14:38 | 45.53077 | 12.16884 | 14131 ft | 370 kts | 288° |
| 2026-04-30 14:38 | 45.53847 | 12.13365 | 14759 ft | 373 kts | 289° |
| 2026-04-30 14:38 | 45.54625 | 12.09813 | 15363 ft | 377 kts | 289° |
| 2026-04-30 14:39 | 45.55409 | 12.06218 | 15952 ft | 381 kts | 289° |
| 2026-04-30 14:39 | 45.56187 | 12.02646 | 16515 ft | 384 kts | 289° |
| 2026-04-30 14:39 | 45.57120 | 11.99055 | 17056 ft | 386 kts | 297° |
| 2026-04-30 14:40 | 45.60357 | 11.92944 | 18102 ft | 389 kts | 320° |
| 2026-04-30 14:40 | 45.62548 | 11.90680 | 18604 ft | 390 kts | 331° |
| 2026-04-30 14:40 | 45.64986 | 11.88942 | 19108 ft | 392 kts | 335° |
| 2026-04-30 14:40 | 45.67456 | 11.87255 | 19614 ft | 395 kts | 335° |
| 2026-04-30 14:41 | 45.69910 | 11.85575 | 20089 ft | 398 kts | 335° |
| 2026-04-30 14:41 | 45.72417 | 11.83854 | 20577 ft | 400 kts | 335° |
| 2026-04-30 14:41 | 45.74929 | 11.82123 | 21031 ft | 402 kts | 335° |
| 2026-04-30 14:41 | 45.77461 | 11.80371 | 21475 ft | 405 kts | 335° |
| 2026-04-30 14:42 | 45.80002 | 11.78609 | 21911 ft | 407 kts | 335° |
| 2026-04-30 14:42 | 45.82564 | 11.76837 | 22333 ft | 410 kts | 335° |
| 2026-04-30 14:42 | 45.85143 | 11.75051 | 22741 ft | 412 kts | 335° |
| 2026-04-30 14:42 | 45.87734 | 11.73254 | 23137 ft | 414 kts | 335° |
| 2026-04-30 14:43 | 45.90336 | 11.71456 | 23524 ft | 416 kts | 335° |
| 2026-04-30 14:43 | 45.92952 | 11.69646 | 23898 ft | 419 kts | 335° |
| 2026-04-30 14:43 | 45.95551 | 11.67844 | 24261 ft | 421 kts | 335° |
| 2026-04-30 14:43 | 45.98197 | 11.66012 | 24633 ft | 423 kts | 335° |
| 2026-04-30 14:44 | 46.00859 | 11.64165 | 24997 ft | 425 kts | 335° |
| 2026-04-30 14:44 | 46.03537 | 11.62304 | 25358 ft | 427 kts | 335° |
| 2026-04-30 14:44 | 46.06222 | 11.60439 | 25714 ft | 429 kts | 335° |
| 2026-04-30 14:44 | 46.08919 | 11.58562 | 26046 ft | 432 kts | 335° |
| 2026-04-30 14:45 | 46.11627 | 11.56670 | 26367 ft | 434 kts | 335° |
| 2026-04-30 14:45 | 46.14357 | 11.54761 | 26687 ft | 436 kts | 335° |
| 2026-04-30 14:45 | 46.17088 | 11.52847 | 26983 ft | 437 kts | 335° |
| 2026-04-30 14:45 | 46.19833 | 11.50919 | 27265 ft | 439 kts | 335° |
| 2026-04-30 14:46 | 46.22551 | 11.49013 | 27542 ft | 441 kts | 335° |
| 2026-04-30 14:46 | 46.25323 | 11.47075 | 27825 ft | 443 kts | 335° |
| 2026-04-30 14:46 | 46.28094 | 11.45134 | 28105 ft | 445 kts | 335° |
| 2026-04-30 14:46 | 46.29948 | 11.43833 | 28285 ft | 446 kts | 335° |
| 2026-04-30 14:47 | 46.33688 | 11.41205 | 28640 ft | 448 kts | 335° |
| 2026-04-30 14:47 | 46.36489 | 11.39229 | 28988 ft | 447 kts | 335° |
| 2026-04-30 14:47 | 46.39278 | 11.37256 | 29338 ft | 446 kts | 335° |
| 2026-04-30 14:47 | 46.42060 | 11.35284 | 29693 ft | 445 kts | 336° |
| 2026-04-30 14:48 | 46.44836 | 11.33316 | 30046 ft | 444 kts | 336° |
| 2026-04-30 14:48 | 46.46677 | 11.32014 | 30131 ft | 443 kts | 336° |
| 2026-04-30 14:48 | 46.52273 | 11.28296 | 30165 ft | 442 kts | 338° |
| 2026-04-30 14:49 | 46.57917 | 11.24751 | 30174 ft | 442 kts | 339° |
| 2026-04-30 14:49 | 46.63564 | 11.21180 | 30184 ft | 442 kts | 338° |
| 2026-04-30 14:50 | 46.71956 | 11.15736 | 30189 ft | 442 kts | 338° |
| 2026-04-30 14:51 | 46.80377 | 11.10237 | 30190 ft | 442 kts | 338° |
| 2026-04-30 14:52 | 46.88807 | 11.04725 | 30195 ft | 442 kts | 338° |
| 2026-04-30 14:52 | 46.97174 | 10.99132 | 30204 ft | 442 kts | 338° |
| 2026-04-30 14:53 | 47.05596 | 10.93608 | 30211 ft | 442 kts | 338° |
| 2026-04-30 14:54 | 47.16844 | 10.86258 | 30211 ft | 442 kts | 338° |
| 2026-04-30 14:55 | 47.25258 | 10.80709 | 30209 ft | 442 kts | 338° |
| 2026-04-30 14:56 | 47.36462 | 10.73304 | 30216 ft | 442 kts | 339° |
| 2026-04-30 14:57 | 47.44955 | 10.67993 | 30232 ft | 441 kts | 341° |
| 2026-04-30 14:58 | 47.56428 | 10.61472 | 30249 ft | 442 kts | 341° |
| 2026-04-30 14:58 | 47.65005 | 10.56436 | 30267 ft | 442 kts | 341° |
| 2026-04-30 15:00 | 47.79281 | 10.48008 | 30278 ft | 442 kts | 341° |
| 2026-04-30 15:01 | 47.90697 | 10.41241 | 30282 ft | 442 kts | 341° |
| 2026-04-30 15:01 | 47.99288 | 10.36125 | 30281 ft | 443 kts | 341° |
| 2026-04-30 15:02 | 48.05007 | 10.32708 | 30275 ft | 443 kts | 341° |
| 2026-04-30 15:03 | 48.19249 | 10.24088 | 30270 ft | 443 kts | 337° |
| 2026-04-30 15:04 | 48.24401 | 10.18898 | 30274 ft | 449 kts | 324° |
| 2026-04-30 15:04 | 48.31702 | 10.10025 | 30279 ft | 449 kts | 324° |
| 2026-04-30 15:06 | 48.43840 | 9.95277 | 30283 ft | 450 kts | 324° |
| 2026-04-30 15:07 | 48.54417 | 9.86007 | 30280 ft | 439 kts | 348° |
| 2026-04-30 15:08 | 48.66260 | 9.81541 | 30293 ft | 440 kts | 348° |
| 2026-04-30 15:09 | 48.81143 | 9.75871 | 30291 ft | 441 kts | 348° |
| 2026-04-30 15:10 | 48.93019 | 9.71320 | 30034 ft | 442 kts | 348° |
| 2026-04-30 15:11 | 49.05031 | 9.66708 | 27445 ft | 448 kts | 348° |
| 2026-04-30 15:11 | 49.11108 | 9.64362 | 25955 ft | 450 kts | 348° |
| 2026-04-30 15:12 | 49.20093 | 9.60861 | 23702 ft | 438 kts | 348° |
| 2026-04-30 15:13 | 49.25965 | 9.58578 | 22191 ft | 432 kts | 348° |
| 2026-04-30 15:14 | 49.37396 | 9.54120 | 19217 ft | 424 kts | 348° |
| 2026-04-30 15:14 | 49.45903 | 9.50808 | 16951 ft | 417 kts | 348° |
| 2026-04-30 15:16 | 49.59394 | 9.45484 | 13310 ft | 407 kts | 347° |
| 2026-04-30 15:17 | 49.69976 | 9.41299 | 10549 ft | 391 kts | 347° |
| 2026-04-30 15:18 | 49.81763 | 9.36322 | 10348 ft | 312 kts | 337° |
| 2026-04-30 15:19 | 49.86490 | 9.30231 | 10364 ft | 299 kts | 306° |